Spirit Lake, IA (51360)

9:28 AM CDT on April 01, 2015 (GMT -0500)
Dickinson Co. Courthouse | | Change Station
CLOSE
Current Station
Personal Weather Station
Location: Spirit Lake, IA
Elevation: 1470 ft
Nearby Weather Stations
Active Advisory: Wind Advisory

Elev 1470 ft 43.42 °N, 95.10 °W | Updated 7 seconds ago

Clear
Clear
61.2 °F
Feels Like 61.2 °F
N
9.1
Wind Variable Wind from South
Gusts 18.4 mph

Today
High -- | Low -- °F
--% Chance of Precip.
Yesterday
High -- | Low -- °F
Precip. -- in
7:02 AM 7:46 PM
Waxing Gibbous, 93% visible
Pressure 29.72 in
Visibility 10.0 miles
Clouds Clear
Dew Point 33 °F
Humidity 35%
Rainfall 0.00 in
Snow Depth Not available.
UV 1 out of 12
Pollen 6.20 out of 12
Air Quality Not available.
Flu Activity Not available.
METAR KMJQ 011353Z AUTO 19017G22KT 10SM CLR 15/M01 A2972 RMK AO2

More Conditions Fewer Conditions

Pressure 29.72 in
Visibility 10.0 miles
Clouds Clear
Dew Point 33 °F
Humidity 35%
Rainfall 0.00 in
Snow Depth Not available.
UV 1 out of 12
Pollen 6.20 out of 12
Air Quality Not available.
Flu Activity Not available.
METAR KMJQ 011353Z AUTO 19017G22KT 10SM CLR 15/M01 A2972 RMK AO2

More Conditions Fewer Conditions

10-Day Weather Forecast

Almanac

Astronomy

Apr. 01, 2015 Rise Set
Actual Time
Civil Twilight
Nautical Twilight
Astronomical Twilight
Moon
Length of Visible Light
Length of Day
Tomorrow will be .
, % of the Moon is Illuminated

Today's Extremes

State Highs State Lows

Community

WunderPhotos

Upload Photos

1,809,962 photos uploaded!

WunderBlogs® & News

Nearby

Air Quality

  Air Quality AQ Index Pollutant
Not available.

Snow Depth

Station Depth Elevation

Earthquake Activity

City Distance Mag. Time & Date
Minimum magnitude displayed is 2.5.

Coastal Water Temperatures

Place Temperature

Stations

Nearby Weather Stations

Station Location Temp. Windchill Dew Point Humidity Wind Precip. Elev Updated Type
                   
Wind Advisory
Statement as of 9:09 AM CDT on April 01, 2015

... Wind Advisory remains in effect until 4 PM CDT this
afternoon...

* timing... southerly winds will increase this morning... and
continue strong through the early afternoon hours.

* Weather conditions... southerly winds of 25 to 35 mph with
gusts to 45 mph can be expected.

Precautionary/preparedness actions...

A Wind Advisory is issued when sustained winds are forecast to be
31 to 39 mph or gusts will range between 46 and 57 mph. Winds of
these magnitudes may cause minor property damage without extra
precautions. Motorists in high profile vehicles should use
caution until the winds subside.